createdAt,value
2019-02-21T00:01:38.097Z,10.25
2019-02-21T00:04:07.820Z,10.26
2019-02-21T00:06:37.319Z,10.18
2019-02-21T00:09:08.302Z,10.18
2019-02-21T00:11:37.728Z,10.14
2019-02-21T00:14:07.178Z,10.19
2019-02-21T00:16:36.659Z,10.17
2019-02-21T00:19:06.225Z,10.17
2019-02-21T00:21:35.615Z,10.12
2019-02-21T00:24:05.010Z,10.08
2019-02-21T00:26:34.531Z,10.06
2019-02-21T00:29:04.005Z,9.99
2019-02-21T00:31:33.398Z,9.96
2019-02-21T00:34:02.828Z,9.94
2019-02-21T00:36:32.316Z,10.06
2019-02-21T00:39:01.790Z,10.03
2019-02-21T00:41:31.215Z,10.10
2019-02-21T00:44:00.617Z,10.14
2019-02-21T00:46:30.100Z,10.20
2019-02-21T00:48:59.619Z,10.21
2019-02-21T00:51:29.012Z,10.29
2019-02-21T00:53:58.435Z,10.30
2019-02-21T00:56:27.960Z,10.29
2019-02-21T00:58:57.446Z,10.26
2019-02-21T01:01:27.086Z,10.30
2019-02-21T01:03:56.610Z,10.29
2019-02-21T01:06:25.997Z,10.25
2019-02-21T01:08:55.403Z,10.22
2019-02-21T01:11:24.949Z,10.19
2019-02-21T01:13:54.546Z,10.18
2019-02-21T01:16:23.937Z,10.17
2019-02-21T01:18:53.388Z,10.14
2019-02-21T01:21:22.860Z,10.13
2019-02-21T01:23:52.337Z,10.14
2019-02-21T01:26:21.779Z,10.12
2019-02-21T01:28:51.205Z,10.08
2019-02-21T01:31:20.704Z,10.12
2019-02-21T01:33:50.232Z,10.10
2019-02-21T01:36:19.642Z,10.10
2019-02-21T01:38:49.131Z,10.09
2019-02-21T01:41:18.661Z,10.07
2019-02-21T01:43:48.065Z,10.15
2019-02-21T01:46:17.564Z,10.19
2019-02-21T01:48:47.121Z,10.18
2019-02-21T01:51:16.519Z,10.14
2019-02-21T01:53:45.944Z,10.11
2019-02-21T01:56:15.471Z,10.11
2019-02-21T01:58:44.953Z,10.11
2019-02-21T02:01:14.360Z,10.10
2019-02-21T02:03:43.907Z,10.11
2019-02-21T02:06:13.404Z,10.08
2019-02-21T02:08:42.924Z,10.11
2019-02-21T02:11:12.343Z,10.09
2019-02-21T02:13:41.745Z,10.08
2019-02-21T02:16:11.224Z,10.06
2019-02-21T02:18:40.676Z,10.02
2019-02-21T02:21:10.165Z,10.00
2019-02-21T02:23:39.998Z,9.94
2019-02-21T02:26:09.538Z,9.87
2019-02-21T02:28:38.942Z,9.76
2019-02-21T02:31:21.579Z,9.64
2019-02-21T02:33:39.759Z,9.55
2019-02-21T02:36:09.295Z,9.46
2019-02-21T02:38:38.729Z,9.43
2019-02-21T02:41:08.366Z,9.33
2019-02-21T02:43:38.057Z,9.28
2019-02-21T02:46:07.431Z,9.23
2019-02-21T02:48:36.876Z,9.16
2019-02-21T02:51:06.359Z,9.10
2019-02-21T02:53:35.813Z,9.06
2019-02-21T02:56:05.475Z,9.07
2019-02-21T02:58:34.865Z,9.10
2019-02-21T03:01:04.522Z,9.09
2019-02-21T03:03:34.018Z,9.20
2019-02-21T03:06:03.408Z,9.28
2019-02-21T03:08:32.807Z,9.31
2019-02-21T03:11:02.404Z,9.39
2019-02-21T03:13:31.882Z,9.40
2019-02-21T03:16:01.284Z,9.44
2019-02-21T03:18:30.814Z,9.51
2019-02-21T03:21:00.290Z,9.49
2019-02-21T03:23:29.780Z,9.47
2019-02-21T03:25:59.383Z,9.49
2019-02-21T03:28:28.910Z,9.48
2019-02-21T03:30:58.425Z,9.52
2019-02-21T03:33:27.969Z,9.51
2019-02-21T03:35:57.407Z,9.46
2019-02-21T03:38:26.866Z,9.44
2019-02-21T03:40:56.290Z,9.38
2019-02-21T03:43:25.785Z,9.39
2019-02-21T03:45:55.283Z,9.34
2019-02-21T03:48:25.010Z,9.28
2019-02-21T03:50:54.443Z,9.30
2019-02-21T03:53:23.971Z,9.36
2019-02-21T03:55:53.958Z,9.42
2019-02-21T03:58:23.448Z,9.47
2019-02-21T04:00:52.891Z,9.45
2019-02-21T04:03:22.318Z,9.42
2019-02-21T04:05:51.818Z,9.37
2019-02-21T04:08:21.332Z,9.34
2019-02-21T04:10:50.762Z,9.25
2019-02-21T04:13:20.236Z,9.24
2019-02-21T04:15:49.724Z,9.17
2019-02-21T04:18:19.169Z,9.09
2019-02-21T04:20:48.655Z,9.05
2019-02-21T04:23:18.124Z,9.01
2019-02-21T04:25:47.762Z,8.89
2019-02-21T04:28:18.355Z,8.90
2019-02-21T04:30:47.840Z,8.84
2019-02-21T04:33:17.353Z,8.78
2019-02-21T04:35:46.760Z,8.74
2019-02-21T04:38:16.289Z,8.74
2019-02-21T04:40:45.830Z,8.67
2019-02-21T04:43:15.324Z,8.60
2019-02-21T04:45:44.747Z,8.52
2019-02-21T04:48:14.423Z,8.54
2019-02-21T04:50:43.925Z,8.47
2019-02-21T04:53:13.402Z,8.43
2019-02-21T04:55:42.881Z,8.41
2019-02-21T04:58:12.378Z,8.38
2019-02-21T05:00:41.838Z,8.33
2019-02-21T05:03:11.299Z,8.35
2019-02-21T05:05:40.844Z,8.32
2019-02-21T05:08:10.320Z,8.31
2019-02-21T05:10:39.754Z,8.37
2019-02-21T05:13:09.119Z,8.35
2019-02-21T05:15:38.600Z,8.32
2019-02-21T05:18:08.108Z,8.38
2019-02-21T05:20:37.789Z,8.44
2019-02-21T05:23:07.279Z,8.46
2019-02-21T05:25:36.805Z,8.48
2019-02-21T05:28:25.957Z,8.48
2019-02-21T05:30:58.529Z,8.56
2019-02-21T05:33:46.839Z,8.50
2019-02-21T05:36:34.006Z,8.48
2019-02-21T05:39:20.867Z,8.43
2019-02-21T05:42:12.231Z,8.38
2019-02-21T05:44:49.833Z,8.32
2019-02-21T05:47:50.038Z,8.29
2019-02-21T05:50:40.760Z,8.33
2019-02-21T05:53:19.058Z,8.35
2019-02-21T05:56:01.937Z,8.42
2019-02-21T05:58:50.286Z,8.45
2019-02-21T06:01:47.698Z,8.51
2019-02-21T06:04:25.044Z,8.52
2019-02-21T06:07:09.919Z,8.61
2019-02-21T06:09:48.613Z,8.66
2019-02-21T06:12:33.232Z,8.69
2019-02-21T06:15:10.025Z,8.71
2019-02-21T06:18:04.259Z,8.77
2019-02-21T06:20:52.808Z,8.83
2019-02-21T06:23:43.818Z,8.89
2019-02-21T06:26:24.208Z,8.94
2019-02-21T06:29:03.492Z,8.95
2019-02-21T06:31:33.210Z,9.03
2019-02-21T06:34:02.702Z,9.09
2019-02-21T06:36:32.127Z,9.10
2019-02-21T06:39:01.682Z,9.18
2019-02-21T06:41:31.180Z,9.19
2019-02-21T06:44:02.053Z,9.30
2019-02-21T06:46:31.493Z,9.37
2019-02-21T06:49:00.916Z,9.38
2019-02-21T06:51:30.436Z,9.46
2019-02-21T06:53:59.974Z,9.50
2019-02-21T06:56:29.382Z,9.60
2019-02-21T06:58:58.827Z,9.66
2019-02-21T07:01:29.570Z,9.72
2019-02-21T07:04:01.751Z,9.75
2019-02-21T07:06:32.190Z,9.81
2019-02-21T07:09:01.906Z,9.89
2019-02-21T07:11:31.324Z,9.93
2019-02-21T07:14:00.777Z,10.05
2019-02-21T07:16:30.514Z,10.10
2019-02-21T07:19:00.037Z,10.15
2019-02-21T07:21:29.452Z,10.20
2019-02-21T07:23:59.062Z,10.28
2019-02-21T07:26:28.606Z,10.34
2019-02-21T07:28:58.423Z,10.32
2019-02-21T07:31:29.249Z,10.39
2019-02-21T07:34:01.560Z,10.41
2019-02-21T07:36:30.313Z,10.48
2019-02-21T07:39:13.832Z,10.51
2019-02-21T07:41:31.009Z,10.58
2019-02-21T07:44:11.356Z,10.63
2019-02-21T07:46:32.458Z,10.66
2019-02-21T07:49:02.029Z,10.71
2019-02-21T07:51:31.540Z,10.76
2019-02-21T07:54:01.071Z,10.78
2019-02-21T07:56:41.181Z,10.78
2019-02-21T07:59:01.638Z,10.82
2019-02-21T08:01:31.263Z,10.87
2019-02-21T08:04:00.801Z,10.97
2019-02-21T08:06:30.215Z,11.00
2019-02-21T08:09:00.020Z,10.99
2019-02-21T08:11:29.500Z,11.07
2019-02-21T08:14:01.273Z,11.12
2019-02-21T08:16:31.024Z,11.23
2019-02-21T08:19:00.456Z,11.33
2019-02-21T08:21:30.269Z,11.28
2019-02-21T08:23:59.821Z,11.31
2019-02-21T08:26:29.651Z,11.27
2019-02-21T08:28:59.103Z,11.27
2019-02-21T08:31:28.624Z,11.34
2019-02-21T08:34:05.971Z,11.49
2019-02-21T08:36:35.587Z,11.62
2019-02-21T08:39:06.223Z,11.66
2019-02-21T08:41:35.720Z,11.74
2019-02-21T08:44:05.374Z,11.78
2019-02-21T08:46:34.762Z,11.75
2019-02-21T08:49:04.233Z,11.78
2019-02-21T08:51:33.913Z,11.82
2019-02-21T08:54:05.548Z,11.83
2019-02-21T08:56:34.518Z,11.85
2019-02-21T08:59:04.162Z,11.80
2019-02-21T09:01:33.668Z,11.93
2019-02-21T09:04:10.547Z,12.09
2019-02-21T09:06:34.597Z,12.13
2019-02-21T09:09:04.701Z,12.06
2019-02-21T09:11:34.104Z,12.10
2019-02-21T09:14:03.608Z,12.26
2019-02-21T09:16:34.355Z,12.39
2019-02-21T09:19:03.935Z,12.36
2019-02-21T09:21:33.542Z,12.35
2019-02-21T09:24:03.001Z,12.46
2019-02-21T09:26:34.660Z,12.48
2019-02-21T09:29:03.822Z,12.50
2019-02-21T09:31:33.213Z,12.51
2019-02-21T09:34:02.794Z,12.46
2019-02-21T09:36:32.327Z,12.51
2019-02-21T09:39:01.841Z,12.62
2019-02-21T09:41:31.251Z,12.65
2019-02-21T09:44:00.950Z,12.74
2019-02-21T09:46:30.362Z,12.77
2019-02-21T09:48:59.763Z,12.80
2019-02-21T09:51:29.316Z,12.73
2019-02-21T09:53:58.795Z,12.83
2019-02-21T09:56:30.745Z,12.93
2019-02-21T09:58:59.530Z,12.91
2019-02-21T10:01:29.021Z,12.88
2019-02-21T10:03:58.567Z,13.04
2019-02-21T10:06:28.144Z,12.99
2019-02-21T10:08:57.563Z,12.98
2019-02-21T10:11:27.056Z,13.07
2019-02-21T10:13:56.611Z,13.18
2019-02-21T10:16:25.994Z,13.10
2019-02-21T10:18:55.480Z,13.09
2019-02-21T10:21:25.206Z,13.11
2019-02-21T10:23:56.619Z,13.14
2019-02-21T10:26:25.851Z,13.21
2019-02-21T10:28:55.432Z,13.27
2019-02-21T10:31:24.902Z,13.19
2019-02-21T10:33:54.368Z,13.27
2019-02-21T10:36:23.915Z,13.27
2019-02-21T10:38:53.376Z,13.24
2019-02-21T10:41:22.779Z,13.26
2019-02-21T10:43:52.261Z,13.44
2019-02-21T10:46:21.754Z,13.35
2019-02-21T10:48:52.161Z,13.39
2019-02-21T10:51:21.612Z,13.54
2019-02-21T10:53:51.032Z,13.43
2019-02-21T10:56:20.625Z,13.33
2019-02-21T10:58:50.307Z,13.50
2019-02-21T11:01:19.723Z,13.58
2019-02-21T11:03:49.249Z,13.49
2019-02-21T11:06:18.777Z,13.39
2019-02-21T11:08:48.179Z,13.43
2019-02-21T11:11:17.701Z,13.43
2019-02-21T11:13:47.318Z,13.47
2019-02-21T11:16:16.707Z,13.60
2019-02-21T11:18:46.123Z,13.61
2019-02-21T11:21:15.704Z,13.59
2019-02-21T11:23:45.181Z,13.55
2019-02-21T11:26:15.115Z,13.75
2019-02-21T11:28:47.180Z,13.74
2019-02-21T11:31:16.121Z,13.67
2019-02-21T11:33:45.595Z,13.70
2019-02-21T11:36:15.111Z,13.79
2019-02-21T11:38:44.646Z,13.84
2019-02-21T11:41:14.239Z,13.91
2019-02-21T11:43:43.655Z,13.89
2019-02-21T11:46:13.235Z,14.01
2019-02-21T11:48:42.712Z,13.95
2019-02-21T11:51:12.610Z,13.87
2019-02-21T11:53:42.026Z,13.93
2019-02-21T11:56:11.527Z,13.93
2019-02-21T11:58:41.223Z,13.93
2019-02-21T12:01:12.839Z,13.97
2019-02-21T12:03:42.265Z,13.89
2019-02-21T12:06:12.141Z,13.89
2019-02-21T12:08:41.608Z,14.00
2019-02-21T12:11:11.156Z,13.99
2019-02-21T12:13:40.904Z,14.02
2019-02-21T12:16:10.609Z,14.10
2019-02-21T12:18:40.526Z,14.09
2019-02-21T12:21:09.991Z,14.05
2019-02-21T12:23:39.721Z,14.11
2019-02-21T12:26:09.143Z,14.08
2019-02-21T12:28:38.705Z,14.11
2019-02-21T12:31:08.252Z,14.07
2019-02-21T12:33:38.102Z,14.00
2019-02-21T12:36:07.931Z,14.09
2019-02-21T12:38:37.377Z,13.96
2019-02-21T12:41:06.946Z,13.93
2019-02-21T12:43:36.506Z,14.01
2019-02-21T12:46:05.960Z,14.05
2019-02-21T12:48:35.415Z,14.09
2019-02-21T12:51:05.491Z,14.11
2019-02-21T12:53:35.090Z,14.29
2019-02-21T12:56:04.507Z,14.22
2019-02-21T12:58:33.963Z,14.30
2019-02-21T13:01:03.473Z,14.36
2019-02-21T13:03:33.741Z,14.33
2019-02-21T13:06:04.748Z,14.35
2019-02-21T13:08:34.411Z,14.28
2019-02-21T13:11:03.829Z,14.29
2019-02-21T13:13:37.621Z,14.21
2019-02-21T13:16:07.118Z,14.20
2019-02-21T13:18:36.618Z,14.26
2019-02-21T13:21:06.186Z,14.31
2019-02-21T13:23:35.599Z,14.34
2019-02-21T13:26:05.486Z,14.36
2019-02-21T13:28:35.027Z,14.33
2019-02-21T13:31:04.426Z,14.41
2019-02-21T13:33:34.202Z,14.35
2019-02-21T13:36:05.159Z,14.30
2019-02-21T13:38:34.633Z,14.31
2019-02-21T13:41:04.028Z,14.38
2019-02-21T13:43:33.495Z,14.34
2019-02-21T13:46:03.043Z,14.43
2019-02-21T13:48:32.524Z,14.47
2019-02-21T13:51:02.155Z,14.41
2019-02-21T13:53:31.536Z,14.47
2019-02-21T13:56:01.070Z,14.46
2019-02-21T13:58:30.762Z,14.44
2019-02-21T14:01:00.159Z,14.45
2019-02-21T14:03:29.597Z,14.42
2019-02-21T14:06:03.520Z,14.40
2019-02-21T14:08:30.351Z,14.38
2019-02-21T14:11:00.002Z,14.44
2019-02-21T14:13:29.453Z,14.40
2019-02-21T14:15:59.145Z,14.35
2019-02-21T14:18:28.652Z,14.31
2019-02-21T14:20:58.124Z,14.25
2019-02-21T14:23:28.164Z,14.24
2019-02-21T14:25:58.081Z,14.23
2019-02-21T14:28:27.591Z,14.20
2019-02-21T14:30:57.107Z,14.28
2019-02-21T14:33:26.589Z,14.30
2019-02-21T14:35:56.014Z,14.27
2019-02-21T14:38:28.138Z,14.22
2019-02-21T14:40:58.113Z,14.20
2019-02-21T14:43:27.621Z,14.23
2019-02-21T14:45:57.039Z,14.28
2019-02-21T14:48:26.903Z,14.26
2019-02-21T14:50:56.684Z,14.19
2019-02-21T14:53:26.150Z,14.14
2019-02-21T14:55:55.565Z,14.12
2019-02-21T14:58:25.007Z,14.10
2019-02-21T15:00:54.489Z,14.06
2019-02-21T15:03:23.945Z,14.10
2019-02-21T15:05:53.631Z,14.02
2019-02-21T15:08:23.144Z,14.00
2019-02-21T15:10:53.559Z,13.96
2019-02-21T15:13:25.534Z,13.92
2019-02-21T15:15:56.624Z,13.85
2019-02-21T15:18:26.252Z,13.83
2019-02-21T15:20:55.640Z,13.77
2019-02-21T15:23:25.080Z,13.68
2019-02-21T15:25:54.638Z,13.64
2019-02-21T15:28:24.127Z,13.54
2019-02-21T15:30:53.536Z,13.54
2019-02-21T15:33:23.058Z,13.41
2019-02-21T15:35:52.701Z,13.30
2019-02-21T15:38:22.293Z,13.33
2019-02-21T15:40:54.090Z,13.25
2019-02-21T15:43:23.542Z,13.25
2019-02-21T15:45:52.944Z,13.11
2019-02-21T15:48:22.496Z,13.05
2019-02-21T15:50:51.977Z,13.01
2019-02-21T15:53:21.481Z,12.96
2019-02-21T15:55:51.114Z,12.82
2019-02-21T15:58:20.564Z,12.70
2019-02-21T16:00:50.148Z,12.64
2019-02-21T16:03:19.818Z,12.61
2019-02-21T16:05:49.361Z,12.49
2019-02-21T16:08:18.793Z,12.38
2019-02-21T16:10:48.507Z,12.15
2019-02-21T16:13:18.146Z,12.16
2019-02-21T16:15:47.714Z,12.14
2019-02-21T16:18:17.201Z,12.16
2019-02-21T16:20:46.653Z,12.05
2019-02-21T16:23:16.079Z,11.93
2019-02-21T16:25:45.768Z,11.71
2019-02-21T16:28:15.225Z,11.59
2019-02-21T16:30:44.633Z,11.52
2019-02-21T16:33:14.094Z,11.44
2019-02-21T16:35:43.602Z,11.40
2019-02-21T16:38:13.043Z,11.26
2019-02-21T16:40:42.467Z,11.23
2019-02-21T16:43:11.933Z,11.09
2019-02-21T16:45:46.279Z,11.10
2019-02-21T16:48:12.592Z,11.02
2019-02-21T16:50:41.963Z,10.89
2019-02-21T16:53:11.417Z,10.81
2019-02-21T16:55:40.953Z,10.85
2019-02-21T16:58:10.373Z,10.68
2019-02-21T17:00:51.318Z,10.55
2019-02-21T17:03:11.018Z,10.43
2019-02-21T17:05:40.441Z,10.35
2019-02-21T17:08:09.892Z,10.32
2019-02-21T17:10:39.440Z,10.32
2019-02-21T17:13:08.904Z,10.26
2019-02-21T17:15:38.294Z,10.27
2019-02-21T17:18:07.915Z,10.13
2019-02-21T17:20:37.412Z,10.13
2019-02-21T17:23:06.855Z,10.23
2019-02-21T17:25:36.455Z,10.20
2019-02-21T17:28:05.884Z,10.13
2019-02-21T17:30:35.388Z,10.11
2019-02-21T17:33:05.027Z,10.09
2019-02-21T17:35:34.438Z,9.98
2019-02-21T17:38:03.888Z,10.14
2019-02-21T17:40:33.506Z,10.07
2019-02-21T17:43:02.918Z,9.96
2019-02-21T17:45:32.396Z,9.94
2019-02-21T17:48:01.851Z,9.79
2019-02-21T17:50:31.230Z,9.82
2019-02-21T17:53:00.682Z,9.81
2019-02-21T17:55:30.370Z,9.76
2019-02-21T17:57:59.796Z,9.69
2019-02-21T18:00:33.429Z,9.68
2019-02-21T18:03:02.908Z,9.68
2019-02-21T18:05:32.383Z,9.63
2019-02-21T18:08:01.853Z,9.63
2019-02-21T18:10:32.412Z,9.46
2019-02-21T18:13:01.933Z,9.42
2019-02-21T18:15:31.399Z,9.42
2019-02-21T18:18:00.920Z,9.39
2019-02-21T18:20:30.355Z,9.34
2019-02-21T18:22:59.778Z,9.24
2019-02-21T18:25:32.728Z,9.32
2019-02-21T18:28:02.345Z,9.26
2019-02-21T18:30:31.931Z,9.28
2019-02-21T18:33:01.481Z,9.13
2019-02-21T18:35:31.242Z,9.10
2019-02-21T18:38:00.674Z,9.11
2019-02-21T18:40:30.261Z,9.02
2019-02-21T18:42:59.701Z,9.16
2019-02-21T18:45:29.102Z,9.16
2019-02-21T18:47:58.606Z,9.21
2019-02-21T18:50:37.742Z,9.18
2019-02-21T18:52:59.238Z,9.18
2019-02-21T18:55:28.681Z,9.07
2019-02-21T18:57:58.124Z,8.97
2019-02-21T19:00:27.831Z,9.00
2019-02-21T19:02:57.297Z,8.96
2019-02-21T19:05:35.275Z,8.90
2019-02-21T19:08:04.692Z,8.88
2019-02-21T19:10:29.220Z,8.76
2019-02-21T19:13:00.050Z,8.72
2019-02-21T19:15:29.604Z,8.73
2019-02-21T19:17:59.079Z,8.70
2019-02-21T19:20:28.685Z,8.62
2019-02-21T19:22:58.118Z,8.62
2019-02-21T19:25:27.683Z,8.67
2019-02-21T19:27:57.150Z,8.63
2019-02-21T19:30:29.921Z,8.60
2019-02-21T19:32:59.481Z,8.61
2019-02-21T19:35:28.972Z,8.54
2019-02-21T19:38:09.547Z,8.62
2019-02-21T19:40:29.720Z,8.71
2019-02-21T19:42:59.681Z,8.76
2019-02-21T19:45:29.255Z,8.82
2019-02-21T19:47:58.757Z,8.89
2019-02-21T19:50:28.232Z,8.97
2019-02-21T19:52:57.737Z,8.99
2019-02-21T19:55:27.258Z,8.97
2019-02-21T19:57:56.674Z,8.77
2019-02-21T20:00:26.845Z,8.79
2019-02-21T20:02:56.147Z,8.69
2019-02-21T20:05:25.789Z,8.76
2019-02-21T20:07:55.347Z,8.72
2019-02-21T20:10:24.898Z,8.65
2019-02-21T20:12:54.763Z,8.63
2019-02-21T20:15:25.213Z,8.55
2019-02-21T20:17:54.695Z,8.48
2019-02-21T20:20:24.209Z,8.40
2019-02-21T20:22:53.622Z,8.37
2019-02-21T20:25:23.368Z,8.37
2019-02-21T20:27:52.803Z,8.28
2019-02-21T20:30:22.278Z,8.30
2019-02-21T20:32:51.758Z,8.34
2019-02-21T20:35:21.150Z,8.34
2019-02-21T20:37:50.628Z,8.43
2019-02-21T20:40:20.142Z,8.43
2019-02-21T20:42:49.674Z,8.36
2019-02-21T20:45:19.174Z,8.42
2019-02-21T20:47:48.907Z,8.57
2019-02-21T20:50:18.688Z,8.53
2019-02-21T20:52:48.117Z,8.46
2019-02-21T20:55:17.570Z,8.49
2019-02-21T20:57:47.104Z,8.54
2019-02-21T21:00:18.354Z,8.60
2019-02-21T21:02:47.958Z,8.70
2019-02-21T21:05:17.442Z,8.73
2019-02-21T21:07:46.949Z,8.81
2019-02-21T21:10:16.972Z,8.90
2019-02-21T21:12:46.463Z,8.97
2019-02-21T21:15:16.071Z,9.02
2019-02-21T21:17:45.878Z,9.01
2019-02-21T21:20:16.809Z,9.02
2019-02-21T21:22:46.426Z,8.91
2019-02-21T21:25:16.358Z,8.94
2019-02-21T21:27:45.787Z,8.89
2019-02-21T21:30:15.555Z,8.84
2019-02-21T21:32:45.049Z,8.86
2019-02-21T21:35:14.726Z,8.84
2019-02-21T21:37:44.350Z,8.90
2019-02-21T21:40:14.556Z,8.97
2019-02-21T21:42:44.077Z,8.95
2019-02-21T21:45:15.746Z,8.96
2019-02-21T21:47:45.457Z,8.92
2019-02-21T21:50:16.558Z,8.83
2019-02-21T21:52:45.983Z,8.75
2019-02-21T21:55:15.629Z,8.72
2019-02-21T21:57:45.097Z,8.65
2019-02-21T22:00:19.721Z,8.60
2019-02-21T22:02:49.145Z,8.49
2019-02-21T22:05:18.547Z,8.59
2019-02-21T22:07:49.410Z,8.50
2019-02-21T22:10:19.290Z,8.42
2019-02-21T22:12:48.800Z,8.49
2019-02-21T22:15:18.581Z,8.43
2019-02-21T22:17:48.024Z,8.38
2019-02-21T22:20:18.105Z,8.49
2019-02-21T22:22:47.571Z,8.45
2019-02-21T22:25:17.159Z,8.46
2019-02-21T22:27:46.564Z,8.49
2019-02-21T22:30:16.832Z,8.44
2019-02-21T22:32:46.263Z,8.40
2019-02-21T22:35:15.839Z,8.30
2019-02-21T22:37:45.354Z,8.18
2019-02-21T22:40:15.010Z,8.10
2019-02-21T22:42:44.471Z,8.03
2019-02-21T22:45:14.317Z,7.97
2019-02-21T22:47:43.848Z,7.88
2019-02-21T22:50:14.474Z,7.78
2019-02-21T22:52:44.169Z,7.68
2019-02-21T22:55:13.876Z,7.59
2019-02-21T22:57:43.318Z,7.56
2019-02-21T23:01:05.217Z,7.47
2019-02-21T23:03:49.692Z,7.45
2019-02-21T23:06:52.722Z,7.38
2019-02-21T23:09:27.447Z,7.37
2019-02-21T23:11:55.692Z,7.39
2019-02-21T23:14:25.178Z,7.36
2019-02-21T23:16:54.554Z,7.34
2019-02-21T23:19:24.259Z,7.34
2019-02-21T23:21:53.818Z,7.31
2019-02-21T23:24:23.257Z,7.28
2019-02-21T23:26:52.802Z,7.26
2019-02-21T23:29:22.234Z,7.29
2019-02-21T23:31:51.706Z,7.27
2019-02-21T23:34:29.079Z,7.28
2019-02-21T23:36:58.464Z,7.26
2019-02-21T23:39:37.526Z,7.21
2019-02-21T23:41:59.126Z,7.19
2019-02-21T23:44:28.569Z,7.11
2019-02-21T23:46:58.046Z,6.98
2019-02-21T23:49:27.539Z,6.91
2019-02-21T23:51:56.943Z,6.85
2019-02-21T23:54:26.380Z,6.79
2019-02-21T23:56:55.894Z,6.74
2019-02-21T23:59:25.328Z,6.73
